createdAt,value
2018-10-16T00:00:04.086Z,25.08
2018-10-16T00:02:36.160Z,24.80
2018-10-16T00:05:08.788Z,24.98
2018-10-16T00:10:23.332Z,25.87
2018-10-16T00:15:42.957Z,24.87
2018-10-16T00:18:15.585Z,24.52
2018-10-16T00:20:47.626Z,27.13
2018-10-16T00:23:19.981Z,28.33
2018-10-16T00:25:52.533Z,28.95
2018-10-16T00:28:24.633Z,24.82
2018-10-16T00:30:57.829Z,24.13
2018-10-16T00:33:30.151Z,23.90
2018-10-16T00:36:03.512Z,24.92
2018-10-16T00:38:36.064Z,23.20
2018-10-16T00:41:09.248Z,27.55
2018-10-16T00:43:41.358Z,27.80
2018-10-16T00:46:13.770Z,25.40
2018-10-16T00:48:45.835Z,23.50
2018-10-16T00:51:18.460Z,23.52
2018-10-16T00:53:50.251Z,22.57
2018-10-16T00:56:23.161Z,23.70
2018-10-16T00:58:55.959Z,24.27
2018-10-16T01:01:31.486Z,24.77
2018-10-16T01:04:06.308Z,25.48
2018-10-16T01:09:15.061Z,27.63
2018-10-16T01:11:46.973Z,22.87
2018-10-16T01:14:19.316Z,21.53
2018-10-16T01:16:51.427Z,22.98
2018-10-16T01:19:23.660Z,22.02
2018-10-16T01:21:55.910Z,24.50
2018-10-16T01:24:27.938Z,24.85
2018-10-16T01:27:00.496Z,23.93
2018-10-16T01:29:32.537Z,24.47
2018-10-16T01:32:04.793Z,22.03
2018-10-16T01:34:36.903Z,25.50
2018-10-16T01:37:09.416Z,23.65
2018-10-16T01:39:41.918Z,25.30
2018-10-16T01:42:14.661Z,22.97
2018-10-16T01:44:50.671Z,24.12
2018-10-16T01:47:23.225Z,26.52
2018-10-16T01:49:55.108Z,22.27
2018-10-16T01:52:27.636Z,23.47
2018-10-16T01:54:59.856Z,23.37
2018-10-16T01:57:31.703Z,26.10
2018-10-16T02:00:03.840Z,26.07
2018-10-16T02:02:36.013Z,25.10
2018-10-16T02:05:09.157Z,26.50
2018-10-16T02:07:41.504Z,26.75
2018-10-16T02:10:18.275Z,26.07
2018-10-16T02:12:50.497Z,26.23
2018-10-16T02:15:22.711Z,25.48
2018-10-16T02:17:54.752Z,26.60
2018-10-16T02:20:27.500Z,29.43
2018-10-16T02:22:59.841Z,31.63
2018-10-16T02:25:35.654Z,31.37
2018-10-16T02:28:08.223Z,33.33
2018-10-16T02:30:40.279Z,28.77
2018-10-16T02:33:12.247Z,24.50
2018-10-16T02:35:44.492Z,23.90
2018-10-16T02:40:52.378Z,27.40
2018-10-16T02:43:24.525Z,28.38
2018-10-16T02:45:57.954Z,26.45
2018-10-16T02:48:29.786Z,28.23
2018-10-16T02:51:01.737Z,24.98
2018-10-16T02:53:34.337Z,32.53
2018-10-16T02:56:06.922Z,32.23
2018-10-16T02:58:39.153Z,35.43
2018-10-16T03:01:12.142Z,28.47
2018-10-16T03:03:43.805Z,29.20
2018-10-16T03:06:15.966Z,30.17
2018-10-16T03:08:48.083Z,31.57
2018-10-16T03:11:20.283Z,31.37
2018-10-16T03:13:52.949Z,35.88
2018-10-16T03:16:24.756Z,28.38
2018-10-16T03:18:56.597Z,28.25
2018-10-16T03:21:28.677Z,33.77
2018-10-16T03:24:00.951Z,32.60
2018-10-16T03:26:36.559Z,33.37
2018-10-16T03:29:09.073Z,32.38
2018-10-16T03:31:41.755Z,34.27
2018-10-16T03:34:13.528Z,34.85
2018-10-16T03:36:46.060Z,30.77
2018-10-16T03:39:18.122Z,29.32
2018-10-16T03:41:50.123Z,30.87
2018-10-16T03:44:22.126Z,29.45
2018-10-16T03:46:54.731Z,29.37
2018-10-16T03:49:29.327Z,28.90
2018-10-16T03:52:02.140Z,26.75
2018-10-16T03:54:34.246Z,28.80
2018-10-16T03:57:07.658Z,29.82
2018-10-16T03:59:39.678Z,29.63
2018-10-16T04:02:11.703Z,29.70
2018-10-16T04:07:19.633Z,25.83
2018-10-16T04:09:51.919Z,30.43
2018-10-16T04:12:24.024Z,29.43
2018-10-16T04:14:56.574Z,25.97
2018-10-16T04:17:28.361Z,27.30
2018-10-16T04:20:00.608Z,33.55
2018-10-16T04:22:32.955Z,29.30
2018-10-16T04:25:04.645Z,28.23
2018-10-16T04:30:13.800Z,32.60
2018-10-16T04:32:45.800Z,31.97
2018-10-16T04:35:19.410Z,28.70
2018-10-16T04:37:51.062Z,27.27
2018-10-16T04:40:23.818Z,29.82
2018-10-16T04:42:55.891Z,29.67
2018-10-16T04:45:27.905Z,29.18
2018-10-16T04:47:59.821Z,30.88
2018-10-16T04:53:08.140Z,30.17
2018-10-16T04:55:40.478Z,28.77
2018-10-16T05:00:49.283Z,29.43
2018-10-16T05:03:21.093Z,28.23
2018-10-16T05:05:53.741Z,27.50
2018-10-16T05:08:25.984Z,28.63
2018-10-16T05:10:58.794Z,26.47
2018-10-16T05:13:30.872Z,29.00
2018-10-16T05:16:03.626Z,26.40
2018-10-16T05:21:11.806Z,24.43
2018-10-16T05:23:43.825Z,26.17
2018-10-16T05:26:16.699Z,27.65
2018-10-16T05:28:49.081Z,28.43
2018-10-16T05:31:21.173Z,28.12
2018-10-16T05:33:53.300Z,26.73
2018-10-16T05:36:24.966Z,27.73
2018-10-16T05:38:58.684Z,28.47
2018-10-16T05:41:30.496Z,29.00
2018-10-16T05:44:02.360Z,27.17
2018-10-16T05:46:34.141Z,30.00
2018-10-16T05:49:06.806Z,27.65
2018-10-16T05:51:38.816Z,28.87
2018-10-16T05:54:10.527Z,29.10
2018-10-16T05:56:42.180Z,27.40
2018-10-16T05:59:13.994Z,29.00
2018-10-16T06:01:45.892Z,30.05
2018-10-16T06:04:17.886Z,27.73
2018-10-16T06:06:50.195Z,27.90
2018-10-16T06:09:22.666Z,29.20
2018-10-16T06:11:54.941Z,27.13
2018-10-16T06:14:28.900Z,26.07
2018-10-16T06:17:01.392Z,28.70
2018-10-16T06:19:33.238Z,29.18
2018-10-16T06:22:05.073Z,25.92
2018-10-16T06:24:36.793Z,30.03
2018-10-16T06:27:08.564Z,32.70
2018-10-16T06:29:40.301Z,30.30
2018-10-16T06:32:11.705Z,27.20
2018-10-16T06:37:19.785Z,26.27
2018-10-16T06:42:27.674Z,28.03
2018-10-16T06:44:59.271Z,29.00
2018-10-16T06:50:09.457Z,30.07
2018-10-16T06:52:41.205Z,31.07
2018-10-16T06:55:12.870Z,31.15
2018-10-16T06:57:44.996Z,29.63
2018-10-16T07:00:16.526Z,28.40
2018-10-16T07:02:47.866Z,31.17
2018-10-16T07:05:19.772Z,30.77
2018-10-16T07:07:51.504Z,31.17
2018-10-16T07:10:23.189Z,30.10
2018-10-16T07:12:56.741Z,30.48
2018-10-16T07:15:28.597Z,31.87
2018-10-16T07:18:00.660Z,31.30
2018-10-16T07:20:32.319Z,32.45
2018-10-16T07:25:39.971Z,29.67
2018-10-16T07:30:48.613Z,29.30
2018-10-16T07:33:20.083Z,32.20
2018-10-16T07:35:51.996Z,35.35
2018-10-16T07:38:23.777Z,33.43
2018-10-16T07:40:55.933Z,33.77
2018-10-16T07:43:27.867Z,35.78
2018-10-16T07:45:59.330Z,33.57
2018-10-16T07:48:31.115Z,33.90
2018-10-16T07:51:02.967Z,35.70
2018-10-16T07:53:34.347Z,38.43
2018-10-16T07:56:07.423Z,32.25
2018-10-16T07:58:39.159Z,36.03
2018-10-16T08:03:47.326Z,32.30
2018-10-16T08:06:18.910Z,35.17
2018-10-16T08:08:50.572Z,35.17
2018-10-16T08:11:22.253Z,35.88
2018-10-16T08:13:54.393Z,36.90
2018-10-16T08:16:27.139Z,35.10
2018-10-16T08:18:58.756Z,35.87
2018-10-16T08:21:30.202Z,33.07
2018-10-16T08:24:02.442Z,37.75
2018-10-16T08:29:10.581Z,37.60
2018-10-16T08:31:42.251Z,34.53
2018-10-16T08:36:50.418Z,29.90
2018-10-16T08:39:31.072Z,30.60
2018-10-16T08:43:25.195Z,32.73
2018-10-16T08:46:14.073Z,32.85
2018-10-16T08:49:02.679Z,30.30
2018-10-16T08:54:11.354Z,30.17
2018-10-16T08:56:43.082Z,29.17
2018-10-16T08:59:14.649Z,29.55
2018-10-16T09:01:47.379Z,26.43
2018-10-16T09:04:19.019Z,26.45
2018-10-16T09:06:51.544Z,26.95
2018-10-16T09:09:23.035Z,25.70
2018-10-16T09:11:54.525Z,25.25
2018-10-16T09:14:26.758Z,26.70
2018-10-16T09:16:59.270Z,22.50
2018-10-16T09:19:31.119Z,24.02
2018-10-16T09:22:02.926Z,25.37
2018-10-16T09:24:34.488Z,23.23
2018-10-16T09:27:07.394Z,22.33
2018-10-16T09:29:40.454Z,21.40
2018-10-16T09:32:12.067Z,21.80
2018-10-16T09:34:43.661Z,22.70
2018-10-16T09:37:19.601Z,20.00
2018-10-16T09:39:51.342Z,19.27
2018-10-16T09:42:23.163Z,17.75
2018-10-16T09:44:54.971Z,18.17
2018-10-16T09:47:26.817Z,15.75
2018-10-16T09:49:58.729Z,15.68
2018-10-16T09:55:08.053Z,13.77
2018-10-16T10:00:21.365Z,13.47
2018-10-16T10:02:54.017Z,11.93
2018-10-16T10:05:26.042Z,10.50
2018-10-16T10:10:37.417Z,10.60
2018-10-16T10:15:47.403Z,10.77
2018-10-16T10:18:19.663Z,10.00
2018-10-16T10:20:51.095Z,8.33
2018-10-16T10:23:24.100Z,8.53
2018-10-16T10:25:56.656Z,8.78
2018-10-16T10:28:28.215Z,9.63
2018-10-16T10:30:59.797Z,8.20
2018-10-16T10:36:07.417Z,8.30
2018-10-16T10:38:39.568Z,9.17
2018-10-16T10:41:11.408Z,8.25
2018-10-16T10:43:43.046Z,8.45
2018-10-16T10:46:15.130Z,7.60
2018-10-16T10:48:47.117Z,7.85
2018-10-16T10:51:19.193Z,7.05
2018-10-16T10:53:50.537Z,7.65
2018-10-16T10:56:22.507Z,7.92
2018-10-16T10:58:53.980Z,7.90
2018-10-16T11:01:26.160Z,7.70
2018-10-16T11:03:58.674Z,7.37
2018-10-16T11:06:30.840Z,7.57
2018-10-16T11:09:02.792Z,6.43
2018-10-16T11:14:18.339Z,7.17
2018-10-16T11:16:50.209Z,7.63
2018-10-16T11:19:22.484Z,7.00
2018-10-16T11:21:54.957Z,7.70
2018-10-16T11:24:27.313Z,7.63
2018-10-16T11:26:59.374Z,7.23
2018-10-16T11:29:31.293Z,6.20
2018-10-16T11:32:03.273Z,6.03
2018-10-16T11:34:38.942Z,7.50
2018-10-16T11:37:10.509Z,6.03
2018-10-16T11:39:42.129Z,5.97
2018-10-16T11:42:13.771Z,6.42
2018-10-16T11:44:45.668Z,6.85
2018-10-16T11:47:18.013Z,6.80
2018-10-16T11:52:26.509Z,6.57
2018-10-16T11:54:58.206Z,6.12
2018-10-16T12:00:09.986Z,6.90
2018-10-16T12:02:41.650Z,6.17
2018-10-16T12:05:13.792Z,5.92
2018-10-16T12:10:21.091Z,6.63
2018-10-16T12:12:52.787Z,7.07
2018-10-16T12:15:24.390Z,6.50
2018-10-16T12:18:01.329Z,6.80
2018-10-16T12:20:37.141Z,6.67
2018-10-16T12:25:44.549Z,6.70
2018-10-16T12:28:19.711Z,6.97
2018-10-16T12:30:51.499Z,6.63
2018-10-16T12:36:01.362Z,7.30
2018-10-16T12:38:33.291Z,6.40
2018-10-16T12:41:05.389Z,7.08
2018-10-16T12:46:13.640Z,6.93
2018-10-16T12:48:47.970Z,7.03
2018-10-16T12:51:20.076Z,7.53
2018-10-16T12:53:52.001Z,6.15
2018-10-16T12:56:24.017Z,7.17
2018-10-16T12:58:55.768Z,7.13
2018-10-16T13:01:27.770Z,7.05
2018-10-16T13:03:59.175Z,6.60
2018-10-16T13:06:30.890Z,6.33
2018-10-16T13:09:02.796Z,7.90
2018-10-16T13:14:11.167Z,8.43
2018-10-16T13:19:18.757Z,7.37
2018-10-16T13:24:26.409Z,8.30
2018-10-16T13:26:58.447Z,8.90
2018-10-16T13:29:31.470Z,7.80
2018-10-16T13:32:03.902Z,7.97
2018-10-16T13:34:35.587Z,7.78
2018-10-16T13:37:07.461Z,7.92
2018-10-16T13:39:40.397Z,7.30
2018-10-16T13:42:12.671Z,8.48
2018-10-16T13:44:44.312Z,7.42
2018-10-16T13:47:16.745Z,7.47
2018-10-16T13:52:25.495Z,7.67
2018-10-16T13:54:57.362Z,7.05
2018-10-16T13:57:28.910Z,7.97
2018-10-16T14:00:00.946Z,7.20
2018-10-16T14:05:09.630Z,6.93
2018-10-16T14:10:17.798Z,7.93
2018-10-16T14:12:50.061Z,7.67
2018-10-16T14:15:21.855Z,7.70
2018-10-16T14:17:53.435Z,8.13
2018-10-16T14:20:25.915Z,6.97
2018-10-16T14:22:57.636Z,7.87
2018-10-16T14:25:29.264Z,7.97
2018-10-16T14:28:01.101Z,8.30
2018-10-16T14:33:10.725Z,8.00
2018-10-16T14:35:42.504Z,8.00
2018-10-16T14:38:14.358Z,7.90
2018-10-16T14:43:22.149Z,8.10
2018-10-16T14:45:58.089Z,7.78
2018-10-16T14:48:30.231Z,8.25
2018-10-16T14:51:01.902Z,8.88
2018-10-16T14:56:11.394Z,8.93
2018-10-16T14:58:43.379Z,8.88
2018-10-16T15:01:15.876Z,7.78
2018-10-16T15:06:24.072Z,9.00
2018-10-16T15:08:56.437Z,9.08
2018-10-16T15:11:28.613Z,9.08
2018-10-16T15:14:00.421Z,10.63
2018-10-16T15:16:32.364Z,10.72
2018-10-16T15:19:04.556Z,13.70
2018-10-16T15:21:36.888Z,15.05
2018-10-16T15:24:08.994Z,12.98
2018-10-16T15:26:40.550Z,12.90
2018-10-16T15:31:17.749Z,8.87
2018-10-16T15:33:49.632Z,8.80
2018-10-16T15:36:21.477Z,8.58
2018-10-16T15:38:54.097Z,11.08
2018-10-16T15:41:26.259Z,8.77
2018-10-16T15:43:58.313Z,7.97
2018-10-16T15:46:30.202Z,9.23
2018-10-16T15:49:02.051Z,12.27
2018-10-16T15:51:33.914Z,14.03
2018-10-16T15:54:06.691Z,10.85
2018-10-16T15:56:38.562Z,15.30
2018-10-16T16:14:16.076Z,18.67
2018-10-16T16:16:47.947Z,16.00
2018-10-16T16:21:55.667Z,19.00
2018-10-16T16:24:32.061Z,18.42
2018-10-16T16:27:04.354Z,17.82
2018-10-16T16:29:36.702Z,17.00
2018-10-16T16:32:08.784Z,18.87
2018-10-16T16:34:40.964Z,22.40
2018-10-16T16:37:12.911Z,22.52
2018-10-16T16:42:20.403Z,21.33
2018-10-16T16:44:52.480Z,24.55
2018-10-16T16:50:01.079Z,24.10
2018-10-16T16:52:32.826Z,24.77
2018-10-16T16:55:05.001Z,27.10
2018-10-16T16:57:36.612Z,26.75
2018-10-16T17:00:10.711Z,30.03
2018-10-16T17:05:19.208Z,32.13
2018-10-16T17:10:26.649Z,33.33
2018-10-16T17:12:58.028Z,31.37
2018-10-16T17:15:29.887Z,28.73
2018-10-16T17:18:02.123Z,30.00
2018-10-16T17:20:33.873Z,28.17
2018-10-16T17:23:06.436Z,27.80
2018-10-16T17:25:38.447Z,28.73
2018-10-16T17:28:10.282Z,30.65
2018-10-16T17:30:41.767Z,34.48
2018-10-16T17:35:50.597Z,32.67
2018-10-16T17:38:22.150Z,31.82
2018-10-16T17:40:53.941Z,32.73
2018-10-16T17:43:25.970Z,32.48
2018-10-16T17:45:57.568Z,33.42
2018-10-16T17:48:30.427Z,33.60
2018-10-16T17:51:02.918Z,34.70
2018-10-16T17:53:34.590Z,35.80
2018-10-16T17:58:49.111Z,34.27
2018-10-16T18:01:21.338Z,37.60
2018-10-16T18:03:53.844Z,34.80
2018-10-16T18:06:25.635Z,33.83
2018-10-16T18:08:57.142Z,30.68
2018-10-16T18:11:29.161Z,31.27
2018-10-16T18:14:00.689Z,33.15
2018-10-16T18:16:34.690Z,30.80
2018-10-16T18:21:43.944Z,27.53
2018-10-16T18:24:15.560Z,28.75
2018-10-16T18:29:24.555Z,30.17
2018-10-16T18:31:55.934Z,29.97
2018-10-16T18:34:27.493Z,28.02
2018-10-16T18:36:59.248Z,28.67
2018-10-16T18:39:31.213Z,28.60
2018-10-16T18:42:02.579Z,28.17
2018-10-16T18:47:11.223Z,28.83
2018-10-16T18:49:45.896Z,25.88
2018-10-16T18:52:18.034Z,26.68
2018-10-16T18:54:49.597Z,27.20
2018-10-16T18:57:21.856Z,27.62
2018-10-16T18:59:54.157Z,26.45
2018-10-16T19:02:25.799Z,26.62
2018-10-16T19:04:57.493Z,25.62
2018-10-16T19:07:29.504Z,26.17
2018-10-16T19:10:01.430Z,27.17
2018-10-16T19:12:33.857Z,25.73
2018-10-16T19:15:07.895Z,26.20
2018-10-16T19:17:39.842Z,33.37
2018-10-16T19:20:12.535Z,36.60
2018-10-16T19:22:44.731Z,33.90
2018-10-16T19:25:19.038Z,30.82
2018-10-16T19:27:50.464Z,29.27
2018-10-16T19:30:21.882Z,30.17
2018-10-16T19:32:53.876Z,27.90
2018-10-16T19:35:26.171Z,28.15
2018-10-16T19:37:58.516Z,36.85
2018-10-16T19:40:30.251Z,30.30
2018-10-16T19:43:01.811Z,28.25
2018-10-16T19:45:34.000Z,28.00
2018-10-16T19:48:07.274Z,28.10
2018-10-16T19:50:38.802Z,29.00
2018-10-16T19:53:10.309Z,30.17
2018-10-16T19:58:19.059Z,29.27
2018-10-16T20:03:27.058Z,29.60
2018-10-16T20:05:58.700Z,30.52
2018-10-16T20:08:30.304Z,30.77
2018-10-16T20:11:02.468Z,29.90
2018-10-16T20:13:34.070Z,30.23
2018-10-16T20:16:10.821Z,30.65
2018-10-16T20:18:43.362Z,30.90
2018-10-16T20:21:15.140Z,30.30
2018-10-16T20:23:47.486Z,32.75
2018-10-16T20:26:19.416Z,30.60
2018-10-16T20:28:52.797Z,30.85
2018-10-16T20:31:24.929Z,32.35
2018-10-16T20:33:56.717Z,32.65
2018-10-16T20:39:07.845Z,31.83
2018-10-16T20:41:40.153Z,32.80
2018-10-16T20:44:11.858Z,31.60
2018-10-16T20:46:43.874Z,31.87
2018-10-16T20:49:15.802Z,31.20
2018-10-16T20:54:23.183Z,31.17
2018-10-16T20:59:30.489Z,33.97
2018-10-16T21:02:02.572Z,32.70
2018-10-16T21:04:34.166Z,31.70
2018-10-16T21:07:07.628Z,32.40
2018-10-16T21:09:39.875Z,31.70
2018-10-16T21:14:47.794Z,33.00
2018-10-16T21:17:19.382Z,34.40
2018-10-16T21:19:51.174Z,32.70
2018-10-16T21:22:23.026Z,32.50
2018-10-16T21:24:55.014Z,34.43
2018-10-16T21:27:26.608Z,33.40
2018-10-16T21:29:58.266Z,33.40
2018-10-16T21:32:29.946Z,32.60
2018-10-16T21:35:01.964Z,35.38
2018-10-16T21:37:34.007Z,34.73
2018-10-16T21:40:07.553Z,33.20
2018-10-16T21:42:39.946Z,35.40
2018-10-16T21:45:11.738Z,35.93
2018-10-16T21:47:43.884Z,35.43
2018-10-16T21:50:15.460Z,35.87
2018-10-16T21:52:47.603Z,34.30
2018-10-16T21:55:19.043Z,33.17
2018-10-16T21:57:50.941Z,32.90
2018-10-16T22:03:06.940Z,33.00
2018-10-16T22:08:17.325Z,32.80
2018-10-16T22:10:49.419Z,34.47
2018-10-16T22:13:21.249Z,32.08
2018-10-16T22:15:53.514Z,31.90
2018-10-16T22:18:32.088Z,32.73
2018-10-16T22:21:03.872Z,32.63
2018-10-16T22:23:35.910Z,32.58
2018-10-16T22:26:08.922Z,30.95
2018-10-16T22:28:41.576Z,31.70
2018-10-16T22:31:14.005Z,32.38
2018-10-16T22:33:47.045Z,34.00
2018-10-16T22:36:18.488Z,34.33
2018-10-16T22:38:50.192Z,33.97
2018-10-16T22:41:21.880Z,33.98
2018-10-16T22:43:54.030Z,33.00
2018-10-16T22:46:30.154Z,32.20
2018-10-16T22:49:01.946Z,32.17
2018-10-16T22:51:33.983Z,32.20
2018-10-16T22:54:06.568Z,30.60
2018-10-16T22:59:15.152Z,31.77
2018-10-16T23:01:47.649Z,29.48
2018-10-16T23:04:19.823Z,30.00
2018-10-16T23:06:59.294Z,30.95
2018-10-16T23:09:31.017Z,31.47
2018-10-16T23:12:03.527Z,38.10
2018-10-16T23:17:11.699Z,44.60
2018-10-16T23:19:44.230Z,46.25
2018-10-16T23:22:17.066Z,45.50
2018-10-16T23:24:48.922Z,41.47
2018-10-16T23:27:20.798Z,43.25
2018-10-16T23:29:52.383Z,41.35
2018-10-16T23:32:24.432Z,36.03
2018-10-16T23:34:56.732Z,35.63
2018-10-16T23:37:29.245Z,35.23
2018-10-16T23:40:01.554Z,36.55
2018-10-16T23:42:33.990Z,35.97
2018-10-16T23:45:06.922Z,35.90
2018-10-16T23:47:39.166Z,34.58
2018-10-16T23:52:52.940Z,32.13
2018-10-16T23:55:27.341Z,33.30
2018-10-16T23:57:59.127Z,37.30
